sensor_id;sensor_type;location;lat;lon;timestamp;temperature;humidity
12115;DHT22;6121;49.810;6.418;2023-09-07T00:01:07;16.20;99.90
12115;DHT22;6121;49.810;6.418;2023-09-07T00:03:33;16.00;99.90
12115;DHT22;6121;49.810;6.418;2023-09-07T00:05:59;16.00;99.90
12115;DHT22;6121;49.810;6.418;2023-09-07T00:08:24;15.90;99.90
12115;DHT22;6121;49.810;6.418;2023-09-07T00:10:51;15.70;99.90
12115;DHT22;6121;49.810;6.418;2023-09-07T00:13:17;15.80;99.90
12115;DHT22;6121;49.810;6.418;2023-09-07T00:15:43;15.80;99.90
12115;DHT22;6121;49.810;6.418;2023-09-07T00:18:09;15.80;99.90
12115;DHT22;6121;49.810;6.418;2023-09-07T00:20:35;15.60;99.90
12115;DHT22;6121;49.810;6.418;2023-09-07T00:23:01;15.60;99.90
12115;DHT22;6121;49.810;6.418;2023-09-07T00:25:27;15.70;99.90
12115;DHT22;6121;49.810;6.418;2023-09-07T00:27:53;15.70;99.90
12115;DHT22;6121;49.810;6.418;2023-09-07T00:30:19;15.70;99.90
12115;DHT22;6121;49.810;6.418;2023-09-07T00:32:45;15.70;99.90
12115;DHT22;6121;49.810;6.418;2023-09-07T00:35:11;15.70;99.90
12115;DHT22;6121;49.810;6.418;2023-09-07T00:37:37;15.60;99.90
12115;DHT22;6121;49.810;6.418;2023-09-07T00:40:03;15.60;99.90
12115;DHT22;6121;49.810;6.418;2023-09-07T00:42:30;15.20;99.90
12115;DHT22;6121;49.810;6.418;2023-09-07T00:44:55;15.30;99.90
12115;DHT22;6121;49.810;6.418;2023-09-07T00:47:22;15.20;99.90
12115;DHT22;6121;49.810;6.418;2023-09-07T00:49:48;15.20;99.90
12115;DHT22;6121;49.810;6.418;2023-09-07T00:52:14;15.10;99.90
12115;DHT22;6121;49.810;6.418;2023-09-07T00:54:42;15.20;99.90
12115;DHT22;6121;49.810;6.418;2023-09-07T00:57:08;15.20;99.90
12115;DHT22;6121;49.810;6.418;2023-09-07T00:59:34;15.10;99.90
12115;DHT22;6121;49.810;6.418;2023-09-07T01:02:00;15.10;99.90
12115;DHT22;6121;49.810;6.418;2023-09-07T01:04:26;15.10;99.90
12115;DHT22;6121;49.810;6.418;2023-09-07T01:06:56;15.10;99.90
12115;DHT22;6121;49.810;6.418;2023-09-07T01:09:24;15.10;99.90
12115;DHT22;6121;49.810;6.418;2023-09-07T01:11:52;15.20;99.90
12115;DHT22;6121;49.810;6.418;2023-09-07T01:14:18;15.20;99.90
12115;DHT22;6121;49.810;6.418;2023-09-07T01:16:44;15.10;99.90
12115;DHT22;6121;49.810;6.418;2023-09-07T01:19:11;15.00;99.90
12115;DHT22;6121;49.810;6.418;2023-09-07T01:21:38;15.10;99.90
12115;DHT22;6121;49.810;6.418;2023-09-07T01:24:07;15.00;99.90
12115;DHT22;6121;49.810;6.418;2023-09-07T01:26:37;15.00;99.90
12115;DHT22;6121;49.810;6.418;2023-09-07T01:29:07;15.00;99.90
12115;DHT22;6121;49.810;6.418;2023-09-07T01:31:37;14.90;99.90
12115;DHT22;6121;49.810;6.418;2023-09-07T01:34:05;14.90;99.90
12115;DHT22;6121;49.810;6.418;2023-09-07T01:36:32;15.00;99.90
12115;DHT22;6121;49.810;6.418;2023-09-07T01:38:58;15.10;99.90
12115;DHT22;6121;49.810;6.418;2023-09-07T01:41:24;15.10;99.90
12115;DHT22;6121;49.810;6.418;2023-09-07T01:43:50;15.00;99.90
12115;DHT22;6121;49.810;6.418;2023-09-07T01:46:16;15.00;99.90
12115;DHT22;6121;49.810;6.418;2023-09-07T01:48:41;15.00;99.90
12115;DHT22;6121;49.810;6.418;2023-09-07T01:51:10;15.00;99.90
12115;DHT22;6121;49.810;6.418;2023-09-07T01:53:36;15.00;99.90
12115;DHT22;6121;49.810;6.418;2023-09-07T01:56:02;15.00;99.90
12115;DHT22;6121;49.810;6.418;2023-09-07T01:58:28;14.90;99.90
12115;DHT22;6121;49.810;6.418;2023-09-07T02:00:57;15.20;99.90
12115;DHT22;6121;49.810;6.418;2023-09-07T02:03:24;15.00;99.90
12115;DHT22;6121;49.810;6.418;2023-09-07T02:05:51;14.80;99.90
12115;DHT22;6121;49.810;6.418;2023-09-07T02:08:17;14.80;99.90
12115;DHT22;6121;49.810;6.418;2023-09-07T02:10:43;14.80;99.90
12115;DHT22;6121;49.810;6.418;2023-09-07T02:13:08;14.70;99.90
12115;DHT22;6121;49.810;6.418;2023-09-07T02:15:39;14.60;99.90
12115;DHT22;6121;49.810;6.418;2023-09-07T02:18:06;14.50;99.90
12115;DHT22;6121;49.810;6.418;2023-09-07T02:20:32;14.50;99.90
12115;DHT22;6121;49.810;6.418;2023-09-07T02:22:59;14.50;99.90
12115;DHT22;6121;49.810;6.418;2023-09-07T02:25:25;14.50;99.90
12115;DHT22;6121;49.810;6.418;2023-09-07T02:27:51;14.60;99.90
12115;DHT22;6121;49.810;6.418;2023-09-07T02:30:17;14.50;99.90
12115;DHT22;6121;49.810;6.418;2023-09-07T02:32:43;14.60;99.90
12115;DHT22;6121;49.810;6.418;2023-09-07T02:35:09;14.50;99.90
12115;DHT22;6121;49.810;6.418;2023-09-07T02:37:37;14.60;99.90
12115;DHT22;6121;49.810;6.418;2023-09-07T02:40:03;14.50;99.90
12115;DHT22;6121;49.810;6.418;2023-09-07T02:42:35;14.60;99.90
12115;DHT22;6121;49.810;6.418;2023-09-07T02:45:01;14.50;99.90
12115;DHT22;6121;49.810;6.418;2023-09-07T02:47:27;14.40;99.90
12115;DHT22;6121;49.810;6.418;2023-09-07T02:49:53;14.40;99.90
12115;DHT22;6121;49.810;6.418;2023-09-07T02:52:19;14.30;99.90
12115;DHT22;6121;49.810;6.418;2023-09-07T02:54:45;14.40;99.90
12115;DHT22;6121;49.810;6.418;2023-09-07T02:57:11;14.30;99.90
12115;DHT22;6121;49.810;6.418;2023-09-07T02:59:38;14.40;99.90
12115;DHT22;6121;49.810;6.418;2023-09-07T03:02:04;14.20;99.90
12115;DHT22;6121;49.810;6.418;2023-09-07T03:04:30;14.20;99.90
12115;DHT22;6121;49.810;6.418;2023-09-07T03:06:56;14.10;99.90
12115;DHT22;6121;49.810;6.418;2023-09-07T03:09:22;14.10;99.90
12115;DHT22;6121;49.810;6.418;2023-09-07T03:11:47;14.10;99.90
12115;DHT22;6121;49.810;6.418;2023-09-07T03:14:13;14.00;99.90
12115;DHT22;6121;49.810;6.418;2023-09-07T03:16:39;14.00;99.90
12115;DHT22;6121;49.810;6.418;2023-09-07T03:19:05;14.10;99.90
12115;DHT22;6121;49.810;6.418;2023-09-07T03:21:32;14.00;99.90
12115;DHT22;6121;49.810;6.418;2023-09-07T03:23:58;14.00;99.90
12115;DHT22;6121;49.810;6.418;2023-09-07T03:26:24;14.00;99.90
12115;DHT22;6121;49.810;6.418;2023-09-07T03:28:50;14.10;99.90
12115;DHT22;6121;49.810;6.418;2023-09-07T03:31:16;14.00;99.90
12115;DHT22;6121;49.810;6.418;2023-09-07T03:33:42;14.10;99.90
12115;DHT22;6121;49.810;6.418;2023-09-07T03:36:08;14.00;99.90
12115;DHT22;6121;49.810;6.418;2023-09-07T03:38:35;14.00;99.90
12115;DHT22;6121;49.810;6.418;2023-09-07T03:41:01;14.00;99.90
12115;DHT22;6121;49.810;6.418;2023-09-07T03:43:27;13.90;99.90
12115;DHT22;6121;49.810;6.418;2023-09-07T03:45:53;13.90;99.90
12115;DHT22;6121;49.810;6.418;2023-09-07T03:48:19;13.90;99.90
12115;DHT22;6121;49.810;6.418;2023-09-07T03:50:45;14.00;99.90
12115;DHT22;6121;49.810;6.418;2023-09-07T03:53:11;14.00;99.90
12115;DHT22;6121;49.810;6.418;2023-09-07T03:55:44;14.00;99.90
12115;DHT22;6121;49.810;6.418;2023-09-07T03:58:12;14.00;99.90
12115;DHT22;6121;49.810;6.418;2023-09-07T04:00:40;14.00;99.90
12115;DHT22;6121;49.810;6.418;2023-09-07T04:03:07;14.00;99.90
12115;DHT22;6121;49.810;6.418;2023-09-07T04:05:33;13.90;99.90
12115;DHT22;6121;49.810;6.418;2023-09-07T04:08:00;13.90;99.90
12115;DHT22;6121;49.810;6.418;2023-09-07T04:10:27;14.00;99.90
12115;DHT22;6121;49.810;6.418;2023-09-07T04:12:52;14.00;99.90
12115;DHT22;6121;49.810;6.418;2023-09-07T04:15:18;14.00;99.90
12115;DHT22;6121;49.810;6.418;2023-09-07T04:17:45;14.00;99.90
12115;DHT22;6121;49.810;6.418;2023-09-07T04:20:11;13.90;99.90
12115;DHT22;6121;49.810;6.418;2023-09-07T04:22:40;13.90;99.90
12115;DHT22;6121;49.810;6.418;2023-09-07T04:25:08;13.90;99.90
12115;DHT22;6121;49.810;6.418;2023-09-07T04:27:34;13.70;99.90
12115;DHT22;6121;49.810;6.418;2023-09-07T04:30:00;13.50;99.90
12115;DHT22;6121;49.810;6.418;2023-09-07T04:32:27;13.60;99.90
12115;DHT22;6121;49.810;6.418;2023-09-07T04:34:56;13.60;99.90
12115;DHT22;6121;49.810;6.418;2023-09-07T04:37:23;13.60;99.90
12115;DHT22;6121;49.810;6.418;2023-09-07T04:39:52;13.60;99.90
12115;DHT22;6121;49.810;6.418;2023-09-07T04:42:20;13.70;99.90
12115;DHT22;6121;49.810;6.418;2023-09-07T04:44:46;13.50;99.90
12115;DHT22;6121;49.810;6.418;2023-09-07T04:47:13;13.50;99.90
12115;DHT22;6121;49.810;6.418;2023-09-07T04:49:38;13.50;99.90
12115;DHT22;6121;49.810;6.418;2023-09-07T04:52:04;13.50;99.90
12115;DHT22;6121;49.810;6.418;2023-09-07T04:54:30;13.50;99.90
12115;DHT22;6121;49.810;6.418;2023-09-07T04:56:56;13.60;99.90
12115;DHT22;6121;49.810;6.418;2023-09-07T04:59:22;13.60;99.90
12115;DHT22;6121;49.810;6.418;2023-09-07T05:01:48;13.50;99.90
12115;DHT22;6121;49.810;6.418;2023-09-07T05:04:13;13.50;99.90
12115;DHT22;6121;49.810;6.418;2023-09-07T05:06:39;13.40;99.90
12115;DHT22;6121;49.810;6.418;2023-09-07T05:09:07;13.40;99.90
12115;DHT22;6121;49.810;6.418;2023-09-07T05:11:33;13.40;99.90
12115;DHT22;6121;49.810;6.418;2023-09-07T05:14:02;13.40;99.90
12115;DHT22;6121;49.810;6.418;2023-09-07T05:16:28;13.40;99.90
12115;DHT22;6121;49.810;6.418;2023-09-07T05:18:54;13.50;99.90
12115;DHT22;6121;49.810;6.418;2023-09-07T05:21:20;13.40;99.90
12115;DHT22;6121;49.810;6.418;2023-09-07T05:23:46;13.50;99.90
12115;DHT22;6121;49.810;6.418;2023-09-07T05:26:12;13.50;99.90
12115;DHT22;6121;49.810;6.418;2023-09-07T05:28:40;13.50;99.90
12115;DHT22;6121;49.810;6.418;2023-09-07T05:31:07;13.20;99.90
12115;DHT22;6121;49.810;6.418;2023-09-07T05:33:34;13.30;99.90
12115;DHT22;6121;49.810;6.418;2023-09-07T05:36:00;13.30;99.90
12115;DHT22;6121;49.810;6.418;2023-09-07T05:38:28;13.30;99.90
12115;DHT22;6121;49.810;6.418;2023-09-07T05:40:54;13.20;99.90
12115;DHT22;6121;49.810;6.418;2023-09-07T05:43:21;13.30;99.90
12115;DHT22;6121;49.810;6.418;2023-09-07T05:45:47;13.40;99.90
12115;DHT22;6121;49.810;6.418;2023-09-07T05:48:13;13.30;99.90
12115;DHT22;6121;49.810;6.418;2023-09-07T05:50:42;13.40;99.90
12115;DHT22;6121;49.810;6.418;2023-09-07T05:53:08;13.40;99.90
12115;DHT22;6121;49.810;6.418;2023-09-07T05:55:34;13.50;99.90
12115;DHT22;6121;49.810;6.418;2023-09-07T05:58:04;13.50;99.90
12115;DHT22;6121;49.810;6.418;2023-09-07T06:00:31;13.30;99.90
12115;DHT22;6121;49.810;6.418;2023-09-07T06:02:57;13.30;99.90
12115;DHT22;6121;49.810;6.418;2023-09-07T06:05:23;13.50;99.90
12115;DHT22;6121;49.810;6.418;2023-09-07T06:07:50;13.60;99.90
12115;DHT22;6121;49.810;6.418;2023-09-07T06:10:16;13.70;99.90
12115;DHT22;6121;49.810;6.418;2023-09-07T06:12:44;13.80;99.90
12115;DHT22;6121;49.810;6.418;2023-09-07T06:15:09;13.70;99.90
12115;DHT22;6121;49.810;6.418;2023-09-07T06:17:36;13.80;99.90
12115;DHT22;6121;49.810;6.418;2023-09-07T06:20:02;14.00;99.90
12115;DHT22;6121;49.810;6.418;2023-09-07T06:22:29;14.20;99.90
12115;DHT22;6121;49.810;6.418;2023-09-07T06:24:55;14.30;99.90
12115;DHT22;6121;49.810;6.418;2023-09-07T06:27:21;14.40;99.90
12115;DHT22;6121;49.810;6.418;2023-09-07T06:29:47;14.50;99.90
12115;DHT22;6121;49.810;6.418;2023-09-07T06:32:13;14.60;99.90
12115;DHT22;6121;49.810;6.418;2023-09-07T06:34:40;14.70;99.90
12115;DHT22;6121;49.810;6.418;2023-09-07T06:37:06;14.80;99.90
12115;DHT22;6121;49.810;6.418;2023-09-07T06:39:32;14.90;99.90
12115;DHT22;6121;49.810;6.418;2023-09-07T06:41:57;15.20;99.90
12115;DHT22;6121;49.810;6.418;2023-09-07T06:44:28;15.30;99.90
12115;DHT22;6121;49.810;6.418;2023-09-07T06:46:54;15.30;99.90
12115;DHT22;6121;49.810;6.418;2023-09-07T06:49:23;15.60;99.90
12115;DHT22;6121;49.810;6.418;2023-09-07T06:51:49;15.80;99.90
12115;DHT22;6121;49.810;6.418;2023-09-07T06:54:15;15.80;99.90
12115;DHT22;6121;49.810;6.418;2023-09-07T06:56:41;15.90;99.90
12115;DHT22;6121;49.810;6.418;2023-09-07T06:59:07;15.90;99.90
12115;DHT22;6121;49.810;6.418;2023-09-07T07:01:33;15.90;99.90
12115;DHT22;6121;49.810;6.418;2023-09-07T07:04:00;15.90;99.90
12115;DHT22;6121;49.810;6.418;2023-09-07T07:06:26;16.10;99.90
12115;DHT22;6121;49.810;6.418;2023-09-07T07:08:52;16.20;99.90
12115;DHT22;6121;49.810;6.418;2023-09-07T07:11:19;16.70;99.90
12115;DHT22;6121;49.810;6.418;2023-09-07T07:13:51;16.90;99.90
12115;DHT22;6121;49.810;6.418;2023-09-07T07:16:17;17.20;99.90
12115;DHT22;6121;49.810;6.418;2023-09-07T07:18:43;17.60;99.90
12115;DHT22;6121;49.810;6.418;2023-09-07T07:21:09;17.80;99.90
12115;DHT22;6121;49.810;6.418;2023-09-07T07:23:35;17.90;99.90
12115;DHT22;6121;49.810;6.418;2023-09-07T07:26:02;18.20;99.90
12115;DHT22;6121;49.810;6.418;2023-09-07T07:28:29;18.40;99.90
12115;DHT22;6121;49.810;6.418;2023-09-07T07:30:55;18.60;99.90
12115;DHT22;6121;49.810;6.418;2023-09-07T07:33:22;19.30;99.90
12115;DHT22;6121;49.810;6.418;2023-09-07T07:35:50;19.80;99.90
12115;DHT22;6121;49.810;6.418;2023-09-07T07:38:17;19.30;99.90
12115;DHT22;6121;49.810;6.418;2023-09-07T07:40:43;19.30;99.90
12115;DHT22;6121;49.810;6.418;2023-09-07T07:43:10;19.30;99.90
12115;DHT22;6121;49.810;6.418;2023-09-07T07:45:38;20.20;99.90
12115;DHT22;6121;49.810;6.418;2023-09-07T07:48:05;19.90;99.90
12115;DHT22;6121;49.810;6.418;2023-09-07T07:50:40;19.90;99.90
12115;DHT22;6121;49.810;6.418;2023-09-07T07:53:07;20.90;99.90
12115;DHT22;6121;49.810;6.418;2023-09-07T07:55:35;20.50;99.90
12115;DHT22;6121;49.810;6.418;2023-09-07T07:58:06;20.50;99.90
12115;DHT22;6121;49.810;6.418;2023-09-07T08:00:34;21.00;99.90
12115;DHT22;6121;49.810;6.418;2023-09-07T08:03:01;20.80;99.90
12115;DHT22;6121;49.810;6.418;2023-09-07T08:05:35;21.00;99.90
12115;DHT22;6121;49.810;6.418;2023-09-07T08:08:01;21.40;99.90
12115;DHT22;6121;49.810;6.418;2023-09-07T08:10:28;21.30;99.90
12115;DHT22;6121;49.810;6.418;2023-09-07T08:12:55;21.70;99.90
12115;DHT22;6121;49.810;6.418;2023-09-07T08:15:21;21.80;99.90
12115;DHT22;6121;49.810;6.418;2023-09-07T08:17:49;21.60;99.90
12115;DHT22;6121;49.810;6.418;2023-09-07T08:20:15;22.20;99.90
12115;DHT22;6121;49.810;6.418;2023-09-07T08:22:42;22.20;99.90
12115;DHT22;6121;49.810;6.418;2023-09-07T08:25:10;22.60;99.90
12115;DHT22;6121;49.810;6.418;2023-09-07T08:27:42;22.70;99.90
12115;DHT22;6121;49.810;6.418;2023-09-07T08:30:14;23.20;99.90
12115;DHT22;6121;49.810;6.418;2023-09-07T08:32:44;23.20;99.90
12115;DHT22;6121;49.810;6.418;2023-09-07T08:35:11;23.90;99.90
12115;DHT22;6121;49.810;6.418;2023-09-07T08:37:42;24.10;99.90
12115;DHT22;6121;49.810;6.418;2023-09-07T08:40:09;24.00;99.90
12115;DHT22;6121;49.810;6.418;2023-09-07T08:42:37;24.10;99.90
12115;DHT22;6121;49.810;6.418;2023-09-07T08:45:05;24.60;99.90
12115;DHT22;6121;49.810;6.418;2023-09-07T08:47:34;24.50;99.90
12115;DHT22;6121;49.810;6.418;2023-09-07T08:50:01;24.90;99.90
12115;DHT22;6121;49.810;6.418;2023-09-07T08:52:27;25.00;99.90
12115;DHT22;6121;49.810;6.418;2023-09-07T08:54:54;25.40;99.90
12115;DHT22;6121;49.810;6.418;2023-09-07T08:57:21;26.20;99.90
12115;DHT22;6121;49.810;6.418;2023-09-07T08:59:49;26.20;99.90
12115;DHT22;6121;49.810;6.418;2023-09-07T09:02:15;26.60;99.90
12115;DHT22;6121;49.810;6.418;2023-09-07T09:04:42;26.60;99.90
12115;DHT22;6121;49.810;6.418;2023-09-07T09:07:08;27.10;99.90
12115;DHT22;6121;49.810;6.418;2023-09-07T09:09:34;27.70;99.90
12115;DHT22;6121;49.810;6.418;2023-09-07T09:12:11;28.30;99.90
12115;DHT22;6121;49.810;6.418;2023-09-07T09:14:37;28.50;99.90
12115;DHT22;6121;49.810;6.418;2023-09-07T09:17:03;28.70;99.90
12115;DHT22;6121;49.810;6.418;2023-09-07T09:19:33;29.20;99.90
12115;DHT22;6121;49.810;6.418;2023-09-07T09:22:00;29.60;99.90
12115;DHT22;6121;49.810;6.418;2023-09-07T09:24:26;29.60;99.90
12115;DHT22;6121;49.810;6.418;2023-09-07T09:26:52;29.90;99.90
12115;DHT22;6121;49.810;6.418;2023-09-07T09:29:22;30.30;99.90
12115;DHT22;6121;49.810;6.418;2023-09-07T09:31:49;30.50;99.90
12115;DHT22;6121;49.810;6.418;2023-09-07T09:34:15;31.10;99.90
12115;DHT22;6121;49.810;6.418;2023-09-07T09:36:42;31.50;99.90
12115;DHT22;6121;49.810;6.418;2023-09-07T09:39:08;32.00;99.90
12115;DHT22;6121;49.810;6.418;2023-09-07T09:41:35;32.20;99.90
12115;DHT22;6121;49.810;6.418;2023-09-07T09:44:05;32.70;99.90
12115;DHT22;6121;49.810;6.418;2023-09-07T09:46:32;32.90;99.90
12115;DHT22;6121;49.810;6.418;2023-09-07T09:48:59;33.20;98.90
12115;DHT22;6121;49.810;6.418;2023-09-07T09:51:27;33.10;98.50
12115;DHT22;6121;49.810;6.418;2023-09-07T09:53:54;33.70;97.30
12115;DHT22;6121;49.810;6.418;2023-09-07T09:56:20;34.10;96.00
12115;DHT22;6121;49.810;6.418;2023-09-07T09:58:46;34.50;95.00
12115;DHT22;6121;49.810;6.418;2023-09-07T10:01:13;35.20;94.20
12115;DHT22;6121;49.810;6.418;2023-09-07T10:03:47;35.80;92.40
12115;DHT22;6121;49.810;6.418;2023-09-07T10:06:33;35.30;91.40
12115;DHT22;6121;49.810;6.418;2023-09-07T10:09:06;35.50;90.80
12115;DHT22;6121;49.810;6.418;2023-09-07T10:11:34;36.80;90.00
12115;DHT22;6121;49.810;6.418;2023-09-07T10:14:01;37.80;84.20
12115;DHT22;6121;49.810;6.418;2023-09-07T10:16:45;36.80;83.50
12115;DHT22;6121;49.810;6.418;2023-09-07T10:19:22;36.60;85.40
12115;DHT22;6121;49.810;6.418;2023-09-07T10:21:48;37.20;82.80
12115;DHT22;6121;49.810;6.418;2023-09-07T10:24:28;36.80;80.60
12115;DHT22;6121;49.810;6.418;2023-09-07T10:27:08;37.00;82.20
12115;DHT22;6121;49.810;6.418;2023-09-07T10:29:50;37.50;80.80
12115;DHT22;6121;49.810;6.418;2023-09-07T10:32:18;37.60;79.40
12115;DHT22;6121;49.810;6.418;2023-09-07T10:34:44;37.20;81.20
12115;DHT22;6121;49.810;6.418;2023-09-07T10:37:11;37.90;80.80
12115;DHT22;6121;49.810;6.418;2023-09-07T10:39:39;38.00;79.80
12115;DHT22;6121;49.810;6.418;2023-09-07T10:42:05;37.80;78.90
12115;DHT22;6121;49.810;6.418;2023-09-07T10:44:31;36.50;77.20
12115;DHT22;6121;49.810;6.418;2023-09-07T10:46:57;36.80;78.20
12115;DHT22;6121;49.810;6.418;2023-09-07T10:49:24;38.00;76.20
12115;DHT22;6121;49.810;6.418;2023-09-07T10:51:50;38.00;76.60
12115;DHT22;6121;49.810;6.418;2023-09-07T10:54:23;36.10;76.50
12115;DHT22;6121;49.810;6.418;2023-09-07T10:56:49;35.60;77.80
12115;DHT22;6121;49.810;6.418;2023-09-07T10:59:19;36.50;77.20
12115;DHT22;6121;49.810;6.418;2023-09-07T11:01:45;36.20;79.40
12115;DHT22;6121;49.810;6.418;2023-09-07T11:04:12;37.00;77.60
12115;DHT22;6121;49.810;6.418;2023-09-07T11:06:40;36.40;77.10
12115;DHT22;6121;49.810;6.418;2023-09-07T11:09:06;36.80;78.10
12115;DHT22;6121;49.810;6.418;2023-09-07T11:11:36;35.80;78.70
12115;DHT22;6121;49.810;6.418;2023-09-07T11:14:03;35.50;78.90
12115;DHT22;6121;49.810;6.418;2023-09-07T11:16:32;36.30;79.70
12115;DHT22;6121;49.810;6.418;2023-09-07T11:19:06;35.20;78.50
12115;DHT22;6121;49.810;6.418;2023-09-07T11:21:32;35.60;78.80
12115;DHT22;6121;49.810;6.418;2023-09-07T11:24:00;36.30;79.10
12115;DHT22;6121;49.810;6.418;2023-09-07T11:26:26;36.50;77.30
12115;DHT22;6121;49.810;6.418;2023-09-07T11:28:52;35.90;76.50
12115;DHT22;6121;49.810;6.418;2023-09-07T11:31:19;35.50;78.40
12115;DHT22;6121;49.810;6.418;2023-09-07T11:33:47;35.90;77.40
12115;DHT22;6121;49.810;6.418;2023-09-07T11:36:13;35.10;78.50
12115;DHT22;6121;49.810;6.418;2023-09-07T11:38:43;35.40;77.50
12115;DHT22;6121;49.810;6.418;2023-09-07T11:41:09;35.40;77.10
12115;DHT22;6121;49.810;6.418;2023-09-07T11:43:35;34.90;76.90
12115;DHT22;6121;49.810;6.418;2023-09-07T11:46:01;33.80;79.30
12115;DHT22;6121;49.810;6.418;2023-09-07T11:48:28;34.30;79.60
12115;DHT22;6121;49.810;6.418;2023-09-07T11:50:54;34.30;79.90
12115;DHT22;6121;49.810;6.418;2023-09-07T11:53:20;34.70;79.70
12115;DHT22;6121;49.810;6.418;2023-09-07T11:55:46;34.50;80.50
12115;DHT22;6121;49.810;6.418;2023-09-07T11:58:12;35.20;78.60
12115;DHT22;6121;49.810;6.418;2023-09-07T12:00:38;34.90;77.70
12115;DHT22;6121;49.810;6.418;2023-09-07T12:03:04;35.10;77.60
12115;DHT22;6121;49.810;6.418;2023-09-07T12:05:29;33.90;78.90
12115;DHT22;6121;49.810;6.418;2023-09-07T12:07:56;34.10;79.80
12115;DHT22;6121;49.810;6.418;2023-09-07T12:10:21;33.80;79.50
12115;DHT22;6121;49.810;6.418;2023-09-07T12:12:50;33.60;80.10
12115;DHT22;6121;49.810;6.418;2023-09-07T12:15:16;34.30;79.30
12115;DHT22;6121;49.810;6.418;2023-09-07T12:17:41;34.40;79.40
12115;DHT22;6121;49.810;6.418;2023-09-07T12:20:08;33.80;79.50
12115;DHT22;6121;49.810;6.418;2023-09-07T12:22:39;34.00;80.10
12115;DHT22;6121;49.810;6.418;2023-09-07T12:25:05;34.20;78.70
12115;DHT22;6121;49.810;6.418;2023-09-07T12:27:37;33.70;80.00
12115;DHT22;6121;49.810;6.418;2023-09-07T12:30:03;33.80;80.40
12115;DHT22;6121;49.810;6.418;2023-09-07T12:32:35;33.90;80.30
12115;DHT22;6121;49.810;6.418;2023-09-07T12:35:00;33.50;80.10
12115;DHT22;6121;49.810;6.418;2023-09-07T12:37:26;33.50;80.40
12115;DHT22;6121;49.810;6.418;2023-09-07T12:39:52;32.90;80.90
12115;DHT22;6121;49.810;6.418;2023-09-07T12:42:18;32.90;82.10
12115;DHT22;6121;49.810;6.418;2023-09-07T12:44:44;33.30;82.90
12115;DHT22;6121;49.810;6.418;2023-09-07T12:47:10;32.80;82.30
12115;DHT22;6121;49.810;6.418;2023-09-07T12:49:37;33.40;82.80
12115;DHT22;6121;49.810;6.418;2023-09-07T12:52:04;33.50;82.20
12115;DHT22;6121;49.810;6.418;2023-09-07T12:54:35;33.80;82.80
12115;DHT22;6121;49.810;6.418;2023-09-07T12:57:02;34.10;80.80
12115;DHT22;6121;49.810;6.418;2023-09-07T12:59:29;34.10;81.90
12115;DHT22;6121;49.810;6.418;2023-09-07T13:01:55;34.00;82.60
12115;DHT22;6121;49.810;6.418;2023-09-07T13:04:23;33.60;80.50
12115;DHT22;6121;49.810;6.418;2023-09-07T13:06:49;33.10;81.80
12115;DHT22;6121;49.810;6.418;2023-09-07T13:09:15;33.00;82.80
12115;DHT22;6121;49.810;6.418;2023-09-07T13:11:41;32.70;83.10
12115;DHT22;6121;49.810;6.418;2023-09-07T13:14:07;33.00;82.60
12115;DHT22;6121;49.810;6.418;2023-09-07T13:16:34;32.90;83.40
12115;DHT22;6121;49.810;6.418;2023-09-07T13:19:00;32.80;83.80
12115;DHT22;6121;49.810;6.418;2023-09-07T13:21:26;32.40;83.60
12115;DHT22;6121;49.810;6.418;2023-09-07T13:23:53;32.40;83.80
12115;DHT22;6121;49.810;6.418;2023-09-07T13:26:19;32.10;85.00
12115;DHT22;6121;49.810;6.418;2023-09-07T13:28:45;32.20;85.10
12115;DHT22;6121;49.810;6.418;2023-09-07T13:31:10;32.20;84.90
12115;DHT22;6121;49.810;6.418;2023-09-07T13:33:36;32.20;85.60
12115;DHT22;6121;49.810;6.418;2023-09-07T13:36:02;32.10;85.30
12115;DHT22;6121;49.810;6.418;2023-09-07T13:38:28;32.10;85.30
12115;DHT22;6121;49.810;6.418;2023-09-07T13:40:54;32.00;85.70
12115;DHT22;6121;49.810;6.418;2023-09-07T13:43:20;31.70;85.60
12115;DHT22;6121;49.810;6.418;2023-09-07T13:45:45;31.60;85.90
12115;DHT22;6121;49.810;6.418;2023-09-07T13:48:11;31.70;86.20
12115;DHT22;6121;49.810;6.418;2023-09-07T13:50:37;31.70;85.70
12115;DHT22;6121;49.810;6.418;2023-09-07T13:53:03;31.70;85.30
12115;DHT22;6121;49.810;6.418;2023-09-07T13:55:29;31.40;86.50
12115;DHT22;6121;49.810;6.418;2023-09-07T13:57:55;31.40;87.80
12115;DHT22;6121;49.810;6.418;2023-09-07T14:00:22;31.50;87.50
12115;DHT22;6121;49.810;6.418;2023-09-07T14:02:48;31.60;86.90
12115;DHT22;6121;49.810;6.418;2023-09-07T14:05:14;31.50;86.30
12115;DHT22;6121;49.810;6.418;2023-09-07T14:07:40;31.60;87.80
12115;DHT22;6121;49.810;6.418;2023-09-07T14:10:06;31.30;86.40
12115;DHT22;6121;49.810;6.418;2023-09-07T14:12:32;31.30;86.00
12115;DHT22;6121;49.810;6.418;2023-09-07T14:14:58;31.40;87.20
12115;DHT22;6121;49.810;6.418;2023-09-07T14:17:24;31.40;87.80
12115;DHT22;6121;49.810;6.418;2023-09-07T14:19:50;31.30;86.50
12115;DHT22;6121;49.810;6.418;2023-09-07T14:22:16;31.10;88.30
12115;DHT22;6121;49.810;6.418;2023-09-07T14:24:42;31.30;86.80
12115;DHT22;6121;49.810;6.418;2023-09-07T14:27:07;31.40;86.50
12115;DHT22;6121;49.810;6.418;2023-09-07T14:29:35;31.40;85.80
12115;DHT22;6121;49.810;6.418;2023-09-07T14:32:02;31.10;86.20
12115;DHT22;6121;49.810;6.418;2023-09-07T14:34:28;31.10;87.70
12115;DHT22;6121;49.810;6.418;2023-09-07T14:36:54;31.20;88.70
12115;DHT22;6121;49.810;6.418;2023-09-07T14:39:21;31.30;87.40
12115;DHT22;6121;49.810;6.418;2023-09-07T14:41:50;31.10;87.50
12115;DHT22;6121;49.810;6.418;2023-09-07T14:44:18;31.10;87.20
12115;DHT22;6121;49.810;6.418;2023-09-07T14:46:44;31.10;87.00
12115;DHT22;6121;49.810;6.418;2023-09-07T14:49:10;31.20;87.00
12115;DHT22;6121;49.810;6.418;2023-09-07T14:51:36;31.30;86.40
12115;DHT22;6121;49.810;6.418;2023-09-07T14:54:01;31.20;86.20
12115;DHT22;6121;49.810;6.418;2023-09-07T14:56:28;31.20;86.30
12115;DHT22;6121;49.810;6.418;2023-09-07T14:58:54;31.10;86.60
12115;DHT22;6121;49.810;6.418;2023-09-07T15:01:20;31.10;87.90
12115;DHT22;6121;49.810;6.418;2023-09-07T15:03:46;31.10;87.30
12115;DHT22;6121;49.810;6.418;2023-09-07T15:06:11;31.10;88.30
12115;DHT22;6121;49.810;6.418;2023-09-07T15:08:38;31.00;87.60
12115;DHT22;6121;49.810;6.418;2023-09-07T15:11:04;31.00;87.60
12115;DHT22;6121;49.810;6.418;2023-09-07T15:13:30;31.10;87.10
12115;DHT22;6121;49.810;6.418;2023-09-07T15:15:56;31.10;87.70
12115;DHT22;6121;49.810;6.418;2023-09-07T15:18:22;31.00;88.30
12115;DHT22;6121;49.810;6.418;2023-09-07T15:20:47;31.00;88.30
12115;DHT22;6121;49.810;6.418;2023-09-07T15:23:13;31.00;88.30
12115;DHT22;6121;49.810;6.418;2023-09-07T15:25:39;30.90;89.50
12115;DHT22;6121;49.810;6.418;2023-09-07T15:28:05;30.80;88.90
12115;DHT22;6121;49.810;6.418;2023-09-07T15:30:36;30.70;89.30
12115;DHT22;6121;49.810;6.418;2023-09-07T15:33:01;30.70;90.00
12115;DHT22;6121;49.810;6.418;2023-09-07T15:35:28;30.80;90.30
12115;DHT22;6121;49.810;6.418;2023-09-07T15:37:54;30.60;89.70
12115;DHT22;6121;49.810;6.418;2023-09-07T15:40:20;30.50;90.10
12115;DHT22;6121;49.810;6.418;2023-09-07T15:42:46;30.60;89.00